Time;durP1;ratioP1;P1;durP2;ratioP2;P2;SDS_P1;SDS_P2;PMS_P1;PMS_P2;Temp;Humidity;BMP_temperature;BMP_pressure;BME280_temperature;BME280_humidity;BME280_pressure;Samples;Min_cycle;Max_cycle;Signal;HPM_P1;HPM_P2
2022/04/25 00:00:29;;;;;;;1.27;1.17;;;;;;;5.90;100.00;92053.34;2095916;28;20024;-84
2022/04/25 00:01:30;;;;;;;1.42;1.33;;;;;;;5.99;100.00;92053.53;2101626;28;20085;-86
2022/04/25 00:02:31;;;;;;;1.50;1.40;;;;;;;5.97;100.00;92047.91;2112457;28;20057;-85
2022/04/25 00:03:32;;;;;;;1.77;1.10;;;;;;;5.97;100.00;92049.78;2098308;28;20076;-86
2022/04/25 00:04:33;;;;;;;1.40;1.30;;;;;;;5.91;100.00;92057.47;2104757;28;20054;-87
2022/04/25 00:05:34;;;;;;;1.25;1.20;;;;;;;5.87;100.00;92053.41;2094645;28;20044;-85
2022/04/25 00:06:35;;;;;;;1.85;1.40;;;;;;;5.84;100.00;92043.63;2100029;28;20025;-84
2022/04/25 00:07:37;;;;;;;2.38;1.42;;;;;;;5.83;100.00;92042.88;2100579;28;20028;-84
2022/04/25 00:08:38;;;;;;;1.40;1.30;;;;;;;5.85;100.00;92047.78;2100857;28;20032;-85
2022/04/25 00:09:46;;;;;;;1.95;1.33;;;;;;;5.86;100.00;92042.06;2099122;28;20013;-85
2022/04/25 00:10:47;;;;;;;1.20;1.10;;;;;;;5.86;100.00;92050.00;2093934;28;20025;-84
2022/04/25 00:11:48;;;;;;;1.35;1.25;;;;;;;5.86;100.00;92050.00;2102775;28;20034;-85
2022/04/25 00:12:49;;;;;;;1.42;1.33;;;;;;;5.86;100.00;92051.91;2121659;27;20118;-84
2022/04/25 00:13:49;;;;;;;1.00;1.00;;;;;;;5.87;100.00;92048.09;2105977;28;20028;-86
2022/04/25 00:14:50;;;;;;;1.45;1.35;;;;;;;5.87;100.00;92053.41;2094545;28;20063;-85
2022/04/25 00:15:52;;;;;;;1.75;1.25;;;;;;;5.86;100.00;92047.34;2105482;28;20016;-87
2022/04/25 00:16:56;;;;;;;1.50;1.40;;;;;;;5.87;100.00;92054.16;2107005;28;20058;-84
2022/04/25 00:17:57;;;;;;;1.10;1.10;;;;;;;5.87;100.00;92046.19;2103111;28;20131;-84
2022/04/25 00:18:58;;;;;;;1.40;1.30;;;;;;;5.76;100.00;92051.00;2108422;28;20785;-84
2022/04/25 00:19:59;;;;;;;1.33;1.23;;;;;;;5.70;100.00;92049.97;2118823;27;20040;-86
2022/04/25 00:21:00;;;;;;;2.63;1.42;;;;;;;5.70;100.00;92042.75;2104209;28;20016;-84
2022/04/25 00:22:02;;;;;;;1.08;1.02;;;;;;;5.77;100.00;92044.53;2105955;27;20023;-86
2022/04/25 00:23:06;;;;;;;1.83;1.23;;;;;;;5.80;100.00;92043.72;2106491;28;20118;-85
2022/04/25 00:24:07;;;;;;;1.50;1.40;;;;;;;5.80;100.00;92047.09;2096401;28;20065;-85
2022/04/25 00:25:09;;;;;;;1.40;1.30;;;;;;;5.74;100.00;92045.34;2098424;28;20436;-86
2022/04/25 00:26:10;;;;;;;1.20;1.10;;;;;;;5.81;100.00;92045.19;2100709;28;20087;-86
2022/04/25 00:27:12;;;;;;;1.10;1.10;;;;;;;5.80;100.00;92044.44;2106264;28;20024;-86
2022/04/25 00:28:14;;;;;;;1.17;1.10;;;;;;;5.80;100.00;92043.72;2108610;28;20480;-85
2022/04/25 00:29:15;;;;;;;1.48;1.38;;;;;;;5.68;100.00;92045.09;2108605;28;20044;-86
2022/04/25 00:30:16;;;;;;;1.38;1.27;;;;;;;5.70;100.00;92039.34;2104391;28;20051;-86
2022/04/25 00:31:17;;;;;;;1.00;1.00;;;;;;;5.73;100.00;92039.28;2110829;28;20019;-86
2022/04/25 00:32:18;;;;;;;1.30;1.20;;;;;;;5.70;100.00;92037.44;2111703;28;20024;-87
2022/04/25 00:33:19;;;;;;;1.40;1.30;;;;;;;5.64;100.00;92035.72;2103594;28;20016;-84
2022/04/25 00:34:20;;;;;;;1.30;1.20;;;;;;;5.60;100.00;92035.03;2096166;28;21456;-86
2022/04/25 00:35:22;;;;;;;1.42;1.20;;;;;;;5.59;100.00;92033.53;2103146;28;20130;-83
2022/04/25 00:36:23;;;;;;;1.20;1.10;;;;;;;5.56;100.00;92035.09;2107139;28;20184;-86
2022/04/25 00:37:24;;;;;;;1.45;1.35;;;;;;;5.54;100.00;92040.06;2110660;28;20020;-86
2022/04/25 00:38:25;;;;;;;2.80;1.33;;;;;;;5.53;100.00;92046.50;2108792;28;20047;-85
2022/04/25 00:39:26;;;;;;;1.50;1.05;;;;;;;5.49;100.00;92041.31;2097803;28;20474;-85
2022/04/25 00:40:27;;;;;;;1.42;1.33;;;;;;;5.49;100.00;92041.31;2103772;28;20028;-85
2022/04/25 00:41:35;;;;;;;1.00;1.00;;;;;;;5.44;100.00;92044.41;2105926;28;20027;-85
2022/04/25 00:42:36;;;;;;;1.20;1.10;;;;;;;5.44;100.00;92051.63;2113184;28;20027;-86
2022/04/25 00:43:37;;;;;;;1.23;1.13;;;;;;;5.46;100.00;92042.13;2098973;28;20390;-86
2022/04/25 00:44:38;;;;;;;1.20;1.10;;;;;;;5.39;100.00;92044.91;2115712;27;20028;-86
2022/04/25 00:45:39;;;;;;;1.30;1.20;;;;;;;5.35;100.00;92044.22;2110622;28;20020;-85
2022/04/25 00:46:41;;;;;;;1.35;1.25;;;;;;;5.30;100.00;92040.16;2094990;28;20032;-85
2022/04/25 00:47:43;;;;;;;1.30;1.20;;;;;;;5.23;100.00;92044.84;2114318;28;20015;-85
2022/04/25 00:48:45;;;;;;;1.23;1.13;;;;;;;5.19;100.00;92039.63;2106043;28;20048;-85
2022/04/25 00:49:46;;;;;;;1.77;1.23;;;;;;;5.17;100.00;92033.22;2096629;28;20016;-86
2022/04/25 00:50:47;;;;;;;3.45;1.20;;;;;;;5.12;100.00;92036.34;2093608;28;20058;-85
2022/04/25 00:51:48;;;;;;;1.27;1.17;;;;;;;5.07;100.00;92034.91;2096169;28;20051;-86
2022/04/25 00:52:48;;;;;;;1.40;1.30;;;;;;;5.00;100.00;92035.81;2094471;28;20029;-85
2022/04/25 00:53:49;;;;;;;1.30;1.20;;;;;;;4.89;100.00;92037.91;2101469;28;20512;-84
2022/04/25 00:54:51;;;;;;;1.23;1.15;;;;;;;4.86;100.00;92038.69;2103044;28;21440;-85
2022/04/25 00:55:52;;;;;;;1.00;1.00;;;;;;;4.81;100.00;92036.53;2093612;28;20024;-84
2022/04/25 00:56:54;;;;;;;1.20;1.10;;;;;;;4.79;100.00;92041.50;2095572;28;20013;-83
2022/04/25 00:57:57;;;;;;;1.20;1.10;;;;;;;4.74;100.00;92034.75;2097488;28;20013;-86
2022/04/25 00:58:58;;;;;;;1.60;1.20;;;;;;;4.70;100.00;92034.06;2098054;28;20021;-87
2022/04/25 01:00:00;;;;;;;1.15;1.05;;;;;;;4.67;100.00;92037.53;2095664;28;20020;-84
2022/04/25 01:01:01;;;;;;;1.02;1.02;;;;;;;4.65;100.00;92031.88;2093158;28;20090;-85
2022/04/25 01:02:13;;;;;;;1.38;1.27;;;;;;;4.60;100.00;92034.25;2098823;28;20025;-85
2022/04/25 01:03:14;;;;;;;1.77;1.10;;;;;;;4.55;100.00;92032.81;2111159;27;20408;-86
2022/04/25 01:04:15;;;;;;;1.30;1.20;;;;;;;4.48;100.00;92032.94;2118290;27;20114;-86
2022/04/25 01:05:16;;;;;;;1.20;1.10;;;;;;;4.54;100.00;92031.31;2118067;27;20487;-85
2022/04/25 01:06:17;;;;;;;1.30;1.20;;;;;;;4.55;100.00;92030.91;2097787;28;20028;-85
2022/04/25 01:07:18;;;;;;;1.50;1.40;;;;;;;4.55;100.00;92032.81;2097450;28;20515;-85
2022/04/25 01:08:19;;;;;;;2.08;1.27;;;;;;;4.54;100.00;92034.72;2105917;28;20028;-85
2022/04/25 01:09:21;;;;;;;1.65;1.55;;;;;;;4.57;100.00;92032.41;2100467;28;20054;-85
2022/04/25 01:10:22;;;;;;;1.42;1.33;;;;;;;4.57;100.00;92030.53;2109470;28;20472;-85
2022/04/25 01:11:23;;;;;;;1.70;1.60;;;;;;;4.55;100.00;92033.56;2121560;27;20011;-86
2022/04/25 01:12:24;;;;;;;1.48;1.38;;;;;;;4.60;100.00;92042.19;2105607;28;20110;-86
2022/04/25 01:13:25;;;;;;;3.00;1.52;;;;;;;4.57;100.00;92048.31;2094484;28;20029;-85
2022/04/25 01:14:26;;;;;;;1.58;1.48;;;;;;;4.45;100.00;92042.41;2111877;27;20464;-88
2022/04/25 01:15:28;;;;;;;2.45;1.48;;;;;;;4.40;100.00;92045.53;2110189;28;20019;-87
2022/04/25 01:16:29;;;;;;;1.90;1.58;;;;;;;4.40;100.00;92042.88;2095713;28;20143;-85
2022/04/25 01:17:31;;;;;;;1.30;1.20;;;;;;;4.36;100.00;92042.19;2091263;28;20016;-86
2022/04/25 01:18:32;;;;;;;2.67;1.45;;;;;;;4.28;100.00;92028.31;2101835;28;20055;-86
2022/04/25 01:19:34;;;;;;;1.38;1.27;;;;;;;4.29;100.00;92044.94;2101014;28;20020;-86
2022/04/25 01:20:35;;;;;;;1.60;1.50;;;;;;;4.27;100.00;92037.41;2110766;28;20161;-84
2022/04/25 01:21:58;;;;;;;1.80;1.70;;;;;;;4.28;100.00;92043.44;2099755;28;20013;-86
2022/04/25 01:27:20;;;;;;;1.50;1.40;;;;;;;4.14;100.00;92044.41;2112632;28;20076;-84
2022/04/25 01:28:21;;;;;;;1.58;1.48;;;;;;;4.08;100.00;92043.38;2112715;28;20092;-84
2022/04/25 01:29:22;;;;;;;1.63;1.50;;;;;;;4.06;100.00;92050.97;2109671;28;20024;-84
2022/04/25 01:30:23;;;;;;;1.80;1.70;;;;;;;4.08;100.00;92045.25;2110028;28;20031;-85
2022/04/25 01:31:24;;;;;;;1.92;1.83;;;;;;;4.01;100.00;92049.53;2110784;28;20019;-84
2022/04/25 01:32:25;;;;;;;1.80;1.70;;;;;;;4.00;100.00;92052.56;2105648;28;20016;-88
2022/04/25 01:33:26;;;;;;;2.03;1.80;;;;;;;3.99;100.00;92049.16;2091851;28;20032;-86
2022/04/25 01:34:27;;;;;;;2.83;1.65;;;;;;;4.01;100.00;92054.81;2091801;28;20029;-85
2022/04/25 01:35:28;;;;;;;2.00;1.90;;;;;;;3.98;100.00;92049.56;2088937;28;20013;-85
2022/04/25 01:36:30;;;;;;;2.03;1.80;;;;;;;4.00;100.00;92053.31;2112642;27;20066;-86
2022/04/25 01:37:32;;;;;;;2.20;2.00;;;;;;;4.01;100.00;92054.06;2112295;28;20016;-87
2022/04/25 01:38:33;;;;;;;4.32;2.40;;;;;;;4.00;100.00;92047.28;2094234;28;20020;-84
2022/04/25 01:39:43;;;;;;;2.30;2.10;;;;;;;4.05;100.00;92054.75;2100053;28;20012;-84
2022/04/25 01:40:44;;;;;;;2.40;2.05;;;;;;;4.02;100.00;92052.91;2099589;28;20051;-86
2022/04/25 01:41:45;;;;;;;2.10;1.90;;;;;;;4.06;100.00;92055.50;2097208;28;20020;-83
2022/04/25 01:42:46;;;;;;;2.40;2.20;;;;;;;4.07;100.00;92059.63;2097341;28;20735;-84
2022/04/25 01:43:49;;;;;;;2.25;2.05;;;;;;;4.10;100.00;92050.91;2103535;28;20027;-85
2022/04/25 01:44:50;;;;;;;1.90;1.80;;;;;;;4.15;100.00;92061.78;2109787;28;20653;-84
2022/04/25 01:45:52;;;;;;;2.20;2.00;;;;;;;4.14;100.00;92051.59;2103415;28;20032;-84
2022/04/25 01:46:53;;;;;;;2.17;1.98;;;;;;;4.11;100.00;92052.41;2090825;28;20081;-85
2022/04/25 01:47:53;;;;;;;2.17;2.08;;;;;;;4.08;100.00;92055.84;2093341;28;20016;-85
2022/04/25 01:48:54;;;;;;;2.20;2.00;;;;;;;4.14;100.00;92056.91;2092933;28;20777;-83
2022/04/25 01:49:55;;;;;;;2.00;1.90;;;;;;;4.17;100.00;92045.50;2095453;28;20919;-87
2022/04/25 01:51:03;;;;;;;2.30;2.20;;;;;;;4.08;100.00;92047.91;2107819;28;20030;-88
2022/04/25 01:52:30;;;;;;;2.30;2.10;;;;;;;4.09;100.00;92044.88;2114643;27;20376;-85
2022/04/25 01:53:35;;;;;;;2.10;2.00;;;;;;;4.15;100.00;92048.56;2109425;28;20058;-86
2022/04/25 01:54:36;;;;;;;3.28;2.22;;;;;;;4.17;100.00;92045.50;2112422;28;20106;-84
2022/04/25 01:55:37;;;;;;;2.13;2.00;;;;;;;4.13;100.00;92050.88;2101176;28;20032;-86
2022/04/25 01:56:37;;;;;;;1.90;1.80;;;;;;;4.13;100.00;92048.22;2105471;28;20050;-85
2022/04/25 01:57:38;;;;;;;2.97;1.80;;;;;;;4.18;100.00;92047.03;2108916;28;20028;-85
2022/04/25 01:58:40;;;;;;;3.10;1.75;;;;;;;4.21;100.00;92054.88;2095814;28;20047;-85
2022/04/25 01:59:41;;;;;;;1.90;1.80;;;;;;;4.28;100.00;92046.84;2096212;28;20073;-84
2022/04/25 02:00:43;;;;;;;2.45;2.25;;;;;;;4.29;100.00;92052.88;2099350;28;20024;-86
2022/04/25 02:01:45;;;;;;;2.50;2.05;;;;;;;4.42;100.00;92053.06;2104802;28;20020;-84
2022/04/25 02:02:45;;;;;;;2.40;2.20;;;;;;;4.55;100.00;92053.97;2111541;28;20421;-85
2022/04/25 02:03:47;;;;;;;2.00;1.90;;;;;;;4.39;100.00;92053.84;2109059;28;20020;-84
2022/04/25 02:04:48;;;;;;;2.53;2.33;;;;;;;4.32;100.00;92053.97;2108854;27;20019;-86
2022/04/25 02:05:49;;;;;;;3.47;2.45;;;;;;;4.32;100.00;92054.72;2109525;28;20055;-85
2022/04/25 02:06:50;;;;;;;2.10;2.00;;;;;;;4.42;100.00;92055.69;2111763;28;20446;-85
2022/04/25 02:07:51;;;;;;;2.00;1.90;;;;;;;4.41;100.00;92060.25;2110273;28;20031;-85
2022/04/25 02:08:51;;;;;;;2.63;2.10;;;;;;;4.37;100.00;92056.91;2103902;28;20027;-86
2022/04/25 02:09:52;;;;;;;1.88;1.77;;;;;;;4.42;100.00;92056.44;2097329;28;20054;-86
2022/04/25 02:12:52;;;;;;;;;;;;;;;4.32;100.00;92056.63;2135227;27;20175;-83
2022/04/25 02:13:53;;;;;;;2.97;2.30;;;;;;;4.35;100.00;92059.22;2124271;27;19911;-83
2022/04/25 02:15:12;;;;;;;2.08;1.95;;;;;;;4.36;100.00;92065.25;2104616;28;20390;-83
2022/04/25 02:16:13;;;;;;;2.63;2.42;;;;;;;4.42;100.00;92053.81;2121685;27;20027;-84
2022/04/25 02:17:14;;;;;;;2.50;2.30;;;;;;;4.39;100.00;92061.78;2115807;28;20021;-83
2022/04/25 02:18:16;;;;;;;2.30;2.10;;;;;;;4.41;100.00;92062.91;2112525;27;20019;-86
2022/04/25 02:19:17;;;;;;;2.20;2.00;;;;;;;4.40;100.00;92069.34;2113612;27;20020;-84
2022/04/25 02:20:18;;;;;;;4.93;2.30;;;;;;;4.40;100.00;92068.59;2121119;28;20019;-87
2022/04/25 02:21:19;;;;;;;2.25;2.05;;;;;;;4.42;100.00;92061.75;2129899;27;20383;-83
2022/04/25 02:22:20;;;;;;;2.20;2.00;;;;;;;4.42;100.00;92066.28;2121198;28;20384;-84
2022/04/25 02:23:21;;;;;;;3.42;2.58;;;;;;;4.48;100.00;92064.69;2119139;27;20016;-82
2022/04/25 02:24:22;;;;;;;2.63;2.42;;;;;;;4.54;100.00;92063.81;2121156;28;20019;-83
2022/04/25 02:25:23;;;;;;;2.60;2.40;;;;;;;4.52;100.00;92065.34;2114530;27;20091;-84
2022/04/25 02:26:24;;;;;;;3.90;2.13;;;;;;;4.48;100.00;92064.69;2112775;27;20461;-84
2022/04/25 02:27:25;;;;;;;2.63;2.28;;;;;;;4.49;100.00;92068.84;2105133;28;20024;-83
2022/04/25 02:28:26;;;;;;;3.90;2.50;;;;;;;4.47;100.00;92069.22;2100785;28;20544;-83
2022/04/25 02:29:27;;;;;;;2.53;2.30;;;;;;;4.44;100.00;92070.03;2112897;27;20438;-84
2022/04/25 02:30:28;;;;;;;2.20;2.00;;;;;;;4.46;100.00;92067.72;2120987;28;20023;-84
2022/04/25 02:31:29;;;;;;;2.13;1.98;;;;;;;4.46;100.00;92059.78;2123243;27;20015;-84
2022/04/25 02:32:30;;;;;;;2.22;2.08;;;;;;;4.47;100.00;92071.13;2112543;28;20020;-83
2022/04/25 02:33:32;;;;;;;1.73;1.63;;;;;;;4.52;100.00;92068.78;2112486;28;20072;-83
2022/04/25 02:34:33;;;;;;;2.40;2.20;;;;;;;4.45;100.00;92073.44;2113067;27;20102;-84
2022/04/25 02:35:35;;;;;;;2.08;1.88;;;;;;;4.44;100.00;92072.69;2112605;28;20034;-85
2022/04/25 02:36:36;;;;;;;2.33;2.13;;;;;;;4.45;100.00;92068.88;2106831;27;20015;-84
2022/04/25 02:37:37;;;;;;;2.17;1.98;;;;;;;4.45;100.00;92079.47;2121267;27;20478;-83
2022/04/25 02:38:40;;;;;;;2.20;2.00;;;;;;;4.52;100.00;92079.38;2124445;27;20055;-84
2022/04/25 02:39:41;;;;;;;2.40;2.20;;;;;;;4.51;100.00;92069.91;2106516;28;20055;-84
2022/04/25 02:40:41;;;;;;;1.83;1.73;;;;;;;4.48;100.00;92068.09;2119807;27;20030;-84
2022/04/25 02:41:42;;;;;;;1.90;1.80;;;;;;;4.48;100.00;92077.94;2120949;28;20047;-83
2022/04/25 02:42:44;;;;;;;1.70;1.60;;;;;;;4.51;100.00;92074.44;2104277;28;20535;-84
2022/04/25 02:43:45;;;;;;;1.77;1.63;;;;;;;4.49;100.00;92077.50;2112581;28;20416;-84
2022/04/25 02:44:48;;;;;;;1.63;1.52;;;;;;;4.49;100.00;92082.06;2103701;28;20021;-84
2022/04/25 02:45:49;;;;;;;2.75;1.95;;;;;;;4.50;100.00;92072.97;2114847;27;20016;-86
2022/04/25 02:46:49;;;;;;;1.67;1.58;;;;;;;4.58;100.00;92076.25;2124694;27;20034;-85
2022/04/25 02:47:51;;;;;;;2.03;1.77;;;;;;;4.60;100.00;92074.69;2118263;27;20668;-83
2022/04/25 02:48:52;;;;;;;2.70;1.95;;;;;;;4.62;100.00;92074.28;2119775;27;20499;-82
2022/04/25 02:49:53;;;;;;;1.65;1.55;;;;;;;4.61;100.00;92072.78;2120833;27;20049;-82
2022/04/25 02:50:54;;;;;;;2.20;1.83;;;;;;;4.50;100.00;92078.25;2123230;27;20019;-83
2022/04/25 02:51:55;;;;;;;1.70;1.60;;;;;;;4.57;100.00;92080.81;2114268;27;20111;-84
2022/04/25 02:52:56;;;;;;;3.95;1.75;;;;;;;4.54;100.00;92079.69;2105315;28;20058;-86
2022/04/25 02:53:57;;;;;;;2.17;1.98;;;;;;;4.57;100.00;92080.06;2115502;27;20512;-84
2022/04/25 02:54:58;;;;;;;1.85;1.75;;;;;;;4.66;100.00;92078.38;2113701;28;20109;-83
2022/04/25 02:56:02;;;;;;;1.92;1.83;;;;;;;4.69;100.00;92079.47;2103011;28;20043;-83
2022/04/25 02:57:03;;;;;;;1.83;1.73;;;;;;;4.61;100.00;92078.06;2106403;28;20373;-83
2022/04/25 02:58:04;;;;;;;1.95;1.85;;;;;;;4.69;100.00;92082.09;2104137;28;20383;-82
2022/04/25 02:59:07;;;;;;;2.22;2.08;;;;;;;4.65;100.00;92078.75;2101984;28;20020;-84
2022/04/25 03:00:08;;;;;;;2.15;1.95;;;;;;;4.61;100.00;92080.72;2102316;28;20024;-82
2022/04/25 03:01:09;;;;;;;2.05;1.90;;;;;;;4.72;100.00;92078.66;2112689;27;20019;-83
2022/04/25 03:02:10;;;;;;;2.17;2.00;;;;;;;4.69;100.00;92082.09;2115660;28;21144;-82
2022/04/25 03:03:13;;;;;;;2.40;2.20;;;;;;;4.69;100.00;92079.47;2120936;27;20027;-83
2022/04/25 03:04:14;;;;;;;3.97;2.67;;;;;;;4.69;100.00;92084.75;2120584;28;20019;-84
2022/04/25 03:05:15;;;;;;;2.55;2.35;;;;;;;4.67;100.00;92076.47;2103937;28;20059;-83
2022/04/25 03:06:16;;;;;;;2.20;2.03;;;;;;;4.62;100.00;92079.59;2108739;28;20032;-84
2022/04/25 03:07:17;;;;;;;2.88;2.67;;;;;;;4.65;100.00;92084.06;2104575;28;20028;-85
2022/04/25 03:08:21;;;;;;;2.22;2.05;;;;;;;4.65;100.00;92081.41;2104098;28;20059;-83
2022/04/25 03:09:22;;;;;;;4.95;3.70;;;;;;;4.63;100.00;92083.72;2111052;28;20095;-83
2022/04/25 03:10:23;;;;;;;3.30;2.90;;;;;;;4.68;100.00;92076.06;2104057;28;20024;-83
2022/04/25 03:11:25;;;;;;;18.45;14.55;;;;;;;4.64;100.00;92082.56;2103856;28;20031;-83
2022/04/25 03:12:26;;;;;;;7.90;7.10;;;;;;;4.69;100.00;92080.19;2103725;28;20575;-84
2022/04/25 03:13:27;;;;;;;11.13;9.43;;;;;;;4.60;100.00;92087.16;2095134;28;20020;-84
2022/04/25 03:14:28;;;;;;;6.63;5.45;;;;;;;4.58;100.00;92092.13;2105295;28;20027;-84
2022/04/25 03:15:29;;;;;;;3.70;3.40;;;;;;;4.54;100.00;92085.00;2095552;28;20020;-84
2022/04/25 03:16:31;;;;;;;4.68;3.05;;;;;;;4.60;100.00;92084.53;2101617;28;20077;-83
2022/04/25 03:17:32;;;;;;;3.17;2.80;;;;;;;4.63;100.00;92089.03;2099181;28;20028;-85
2022/04/25 03:18:33;;;;;;;3.55;2.80;;;;;;;4.68;100.00;92088.56;2106989;28;20016;-84
2022/04/25 03:19:34;;;;;;;3.60;3.30;;;;;;;4.55;100.00;92093.66;2103796;28;20408;-83
2022/04/25 03:20:35;;;;;;;8.00;7.20;;;;;;;4.59;100.00;92085.69;2105871;28;20044;-83
2022/04/25 03:21:35;;;;;;;9.25;8.52;;;;;;;4.48;100.00;92081.31;2105932;28;20070;-85
2022/04/25 03:22:36;;;;;;;12.98;11.88;;;;;;;4.54;100.00;92092.19;2093490;28;20013;-83
2022/04/25 03:23:38;;;;;;;5.85;5.30;;;;;;;4.62;100.00;92087.53;2103863;28;20039;-86
2022/04/25 03:24:39;;;;;;;3.35;3.05;;;;;;;4.67;100.00;92087.06;2106502;28;20027;-83
2022/04/25 03:25:40;;;;;;;3.05;2.85;;;;;;;4.63;100.00;92083.72;2097782;28;20918;-82
2022/04/25 03:26:41;;;;;;;5.72;5.22;;;;;;;4.66;100.00;92093.50;2097994;28;20029;-83
2022/04/25 03:27:42;;;;;;;8.43;4.50;;;;;;;4.62;100.00;92095.47;2107302;28;20020;-85
2022/04/25 03:28:43;;;;;;;4.65;4.35;;;;;;;4.58;100.00;92092.13;2099203;28;20047;-84
2022/04/25 03:29:44;;;;;;;7.70;7.00;;;;;;;4.53;100.00;92094.09;2098221;28;20017;-83
2022/04/25 03:30:46;;;;;;;7.45;6.85;;;;;;;4.52;100.00;92089.94;2092200;28;20425;-85
2022/04/25 03:31:47;;;;;;;4.72;4.32;;;;;;;4.45;100.00;92089.31;2096282;28;20020;-84
2022/04/25 03:32:48;;;;;;;3.67;3.38;;;;;;;4.39;100.00;92090.88;2100002;28;20012;-84
2022/04/25 03:33:48;;;;;;;2.47;2.28;;;;;;;4.41;100.00;92094.63;2091945;28;20051;-84
2022/04/25 03:34:51;;;;;;;2.40;2.20;;;;;;;4.43;100.00;92092.34;2091566;28;20048;-85
2022/04/25 03:35:52;;;;;;;2.50;2.25;;;;;;;4.42;100.00;92095.38;2092005;28;20023;-84
2022/04/25 03:36:56;;;;;;;3.35;3.15;;;;;;;4.46;100.00;92091.53;2094388;28;20017;-87
2022/04/25 03:38:00;;;;;;;3.55;3.25;;;;;;;4.51;100.00;92099.00;2097992;28;20103;-83
2022/04/25 03:39:01;;;;;;;4.20;3.90;;;;;;;4.54;100.00;92094.81;2093835;28;20021;-83
2022/04/25 03:40:04;;;;;;;4.90;4.50;;;;;;;4.48;100.00;92097.19;2091839;28;20013;-83
2022/04/25 03:41:05;;;;;;;5.22;4.03;;;;;;;4.55;100.00;92098.97;2092513;28;20021;-82
2022/04/25 03:42:06;;;;;;;4.28;3.97;;;;;;;4.58;100.00;92100.06;2101948;28;20101;-85
2022/04/25 03:43:07;;;;;;;4.25;3.85;;;;;;;4.61;100.00;92101.88;2099944;28;20107;-83
2022/04/25 03:44:08;;;;;;;4.10;3.80;;;;;;;4.62;100.00;92098.88;2107351;28;20039;-84
2022/04/25 03:45:09;;;;;;;6.82;6.32;;;;;;;4.60;100.00;92105.69;2106327;28;20061;-84
2022/04/25 03:46:12;;;;;;;6.40;5.90;;;;;;;4.60;100.00;92095.09;2106426;28;20102;-83
2022/04/25 03:47:13;;;;;;;6.03;4.75;;;;;;;4.62;100.00;92098.13;2110777;28;20039;-83
2022/04/25 03:48:14;;;;;;;3.70;3.40;;;;;;;4.72;100.00;92103.22;2098025;28;20035;-85
2022/04/25 03:49:14;;;;;;;3.72;3.42;;;;;;;4.68;100.00;92104.44;2095906;28;20020;-84
2022/04/25 03:50:16;;;;;;;2.72;2.53;;;;;;;4.83;100.00;92100.41;2099586;28;20027;-84
2022/04/25 03:51:17;;;;;;;3.22;2.50;;;;;;;4.76;100.00;92103.16;2099481;28;20013;-84
2022/04/25 03:52:18;;;;;;;2.53;2.33;;;;;;;4.77;100.00;92102.00;2100043;28;20137;-85
2022/04/25 03:53:19;;;;;;;2.30;2.20;;;;;;;4.77;100.00;92105.41;2091874;28;20025;-85
2022/04/25 03:57:10;;;;;;;2.30;2.13;;;;;;;4.77;100.00;92105.41;2097390;28;20162;-85
2022/04/25 03:57:10;;;;;;;2.30;2.10;;;;;;;4.68;100.00;92109.72;2114052;28;20020;-84
2022/04/25 03:58:11;;;;;;;2.00;1.90;;;;;;;4.76;100.00;92105.81;2108732;28;20028;-83
2022/04/25 03:59:13;;;;;;;2.70;2.50;;;;;;;4.76;100.00;92106.56;2089772;28;20035;-84
2022/04/25 04:00:14;;;;;;;2.85;2.17;;;;;;;4.77;100.00;92099.38;2098841;27;20029;-84
2022/04/25 04:01:15;;;;;;;2.40;2.20;;;;;;;4.77;100.00;92105.41;2101087;28;20428;-83
2022/04/25 04:02:16;;;;;;;1.92;1.83;;;;;;;4.74;100.00;92102.81;2089149;28;20167;-85
2022/04/25 04:03:18;;;;;;;4.90;1.85;;;;;;;4.72;100.00;92110.41;2102439;28;20108;-85
2022/04/25 04:04:19;;;;;;;2.35;2.17;;;;;;;4.75;100.00;92112.28;2098208;28;20020;-83
2022/04/25 04:05:20;;;;;;;2.20;2.00;;;;;;;4.78;100.00;92108.81;2106138;28;20020;-83
2022/04/25 04:06:23;;;;;;;3.20;2.13;;;;;;;4.67;100.00;92108.97;2106179;28;20118;-85
2022/04/25 04:07:24;;;;;;;8.55;2.42;;;;;;;4.70;100.00;92110.84;2106169;28;20012;-82
2022/04/25 04:08:25;;;;;;;2.63;2.30;;;;;;;4.69;100.00;92106.66;2104175;28;20028;-84
2022/04/25 04:09:44;;;;;;;2.42;2.25;;;;;;;4.69;100.00;92108.56;2100440;28;20492;-84
2022/04/25 04:10:45;;;;;;;2.58;2.38;;;;;;;4.77;100.00;92109.97;2114137;27;20007;-84
2022/04/25 04:11:47;;;;;;;4.90;2.63;;;;;;;4.75;100.00;92114.91;2104940;28;20020;-84
2022/04/25 04:12:48;;;;;;;2.70;2.50;;;;;;;4.74;100.00;92110.75;2091807;28;20041;-85
2022/04/25 04:13:49;;;;;;;2.92;2.20;;;;;;;4.76;100.00;92109.22;2089484;28;20024;-81
2022/04/25 04:14:50;;;;;;;2.92;2.72;;;;;;;4.64;100.00;92107.13;2088778;28;20033;-83
2022/04/25 04:15:52;;;;;;;2.85;2.65;;;;;;;4.63;100.00;92113.59;2089613;28;20028;-83
2022/04/25 04:16:53;;;;;;;2.78;2.58;;;;;;;4.66;100.00;92110.13;2091860;28;20016;-83
2022/04/25 04:18:13;;;;;;;3.40;3.10;;;;;;;4.66;100.00;92109.41;2104398;28;20028;-84
2022/04/25 04:19:14;;;;;;;;;;;;;;;4.77;100.00;92117.91;2101315;28;20024;-84
2022/04/25 04:20:15;;;;;;;3.95;2.53;;;;;;;4.80;100.00;92109.91;2092630;28;19909;-83
2022/04/25 04:21:16;;;;;;;4.10;3.42;;;;;;;4.86;100.00;92123.41;2107203;27;20016;-82
2022/04/25 04:22:16;;;;;;;4.25;3.83;;;;;;;4.90;100.00;92126.00;2101982;28;20035;-85
2022/04/25 04:23:18;;;;;;;4.75;4.35;;;;;;;4.91;100.00;92125.59;2098480;28;20030;-82
2022/04/25 04:24:19;;;;;;;4.25;3.85;;;;;;;4.83;100.00;92115.53;2097747;28;20218;-84
2022/04/25 04:25:22;;;;;;;4.13;3.80;;;;;;;4.79;100.00;92118.25;2106257;28;20024;-86
2022/04/25 04:26:23;;;;;;;3.20;2.90;;;;;;;4.82;100.00;92116.69;2116059;27;20047;-83
2022/04/25 04:27:24;;;;;;;3.78;3.42;;;;;;;4.76;100.00;92129.66;2112660;28;20023;-83
2022/04/25 04:28:25;;;;;;;4.18;3.42;;;;;;;4.81;100.00;92121.25;2101976;28;20027;-84
2022/04/25 04:29:26;;;;;;;10.63;8.50;;;;;;;4.71;100.00;92128.22;2091816;28;20472;-81
2022/04/25 04:30:30;;;;;;;3.97;3.58;;;;;;;4.78;100.00;92129.97;2100147;28;20381;-83
2022/04/25 04:31:37;;;;;;;5.53;3.17;;;;;;;4.76;100.00;92124.34;2098622;28;20021;-83
2022/04/25 04:32:40;;;;;;;3.13;2.80;;;;;;;4.76;100.00;92127.75;2090075;28;20021;-83
2022/04/25 04:33:41;;;;;;;4.18;2.47;;;;;;;4.80;100.00;92136.38;2095666;28;20020;-83
2022/04/25 04:34:42;;;;;;;3.17;2.97;;;;;;;4.72;100.00;92124.41;2089374;28;20462;-84
2022/04/25 04:37:03;;;;;;;3.28;3.05;;;;;;;4.71;100.00;92132.75;2105089;27;20428;-83
2022/04/25 04:38:05;;;;;;;2.80;2.60;;;;;;;4.74;100.00;92132.72;2096587;28;20028;-83
2022/04/25 04:39:12;;;;;;;4.00;2.92;;;;;;;4.76;100.00;92130.38;2099542;28;20477;-82
2022/04/25 04:40:28;;;;;;;4.00;3.58;;;;;;;4.81;100.00;92134.47;2098189;28;20024;-85
2022/04/25 04:41:29;;;;;;;2.40;2.20;;;;;;;4.83;100.00;92139.34;2093458;28;20033;-83
2022/04/25 04:42:30;;;;;;;2.90;2.70;;;;;;;4.78;100.00;92138.69;2098085;28;20020;-84
2022/04/25 04:43:31;;;;;;;2.53;2.33;;;;;;;4.97;100.00;92139.16;2098001;28;20092;-83
2022/04/25 04:44:32;;;;;;;3.40;3.13;;;;;;;4.91;100.00;92141.50;2106337;28;20045;-84
2022/04/25 04:45:33;;;;;;;5.97;5.47;;;;;;;4.87;100.00;92143.44;2097984;28;20020;-85
2022/04/25 04:46:34;;;;;;;6.72;6.03;;;;;;;4.88;100.00;92141.56;2097992;28;20028;-83
2022/04/25 04:47:36;;;;;;;21.42;19.05;;;;;;;4.71;100.00;92149.38;2106033;28;20023;-82
2022/04/25 04:48:37;;;;;;;24.48;21.05;;;;;;;4.74;100.00;92138.00;2097908;28;20032;-83
2022/04/25 04:49:38;;;;;;;7.85;7.15;;;;;;;4.70;100.00;92144.50;2097158;28;20029;-83
2022/04/25 04:50:40;;;;;;;9.25;6.30;;;;;;;4.77;100.00;92147.03;2099386;28;20033;-82
2022/04/25 04:51:42;;;;;;;10.73;9.52;;;;;;;4.72;100.00;92148.22;2097894;28;20111;-82
2022/04/25 04:52:57;;;;;;;7.60;3.83;;;;;;;4.76;100.00;92142.88;2098007;28;20020;-84
2022/04/25 04:53:59;;;;;;;4.03;3.63;;;;;;;4.70;100.00;92142.59;2093612;28;20017;-83
2022/04/25 04:55:00;;;;;;;2.88;2.58;;;;;;;4.74;100.00;92142.53;2098059;28;20024;-83
2022/04/25 04:56:01;;;;;;;3.05;2.75;;;;;;;4.74;100.00;92145.94;2089674;28;20032;-83
2022/04/25 04:57:03;;;;;;;5.70;4.97;;;;;;;4.85;100.00;92150.31;2094368;28;20443;-83
2022/04/25 04:58:04;;;;;;;5.93;4.38;;;;;;;4.85;100.00;92148.41;2089735;28;20496;-83
2022/04/25 04:59:05;;;;;;;4.68;4.28;;;;;;;4.84;100.00;92146.91;2081305;28;20027;-84
2022/04/25 05:00:15;;;;;;;3.35;3.13;;;;;;;4.90;100.00;92155.13;2098083;28;20451;-83
2022/04/25 05:01:16;;;;;;;3.60;3.30;;;;;;;5.02;100.00;92157.22;2098846;28;20024;-84